sensor_id;sensor_type;location;lat;lon;timestamp;temperature;humidity
13093;DHT22;6612;49.568;11.000;2022-11-21T00:01:52;8.80;74.40
13093;DHT22;6612;49.568;11.000;2022-11-21T00:04:18;8.70;74.70
13093;DHT22;6612;49.568;11.000;2022-11-21T00:06:45;8.70;75.10
13093;DHT22;6612;49.568;11.000;2022-11-21T00:09:12;8.70;75.40
13093;DHT22;6612;49.568;11.000;2022-11-21T00:11:39;8.60;76.50
13093;DHT22;6612;49.568;11.000;2022-11-21T00:14:06;8.60;76.10
13093;DHT22;6612;49.568;11.000;2022-11-21T00:16:34;8.60;76.40
13093;DHT22;6612;49.568;11.000;2022-11-21T00:19:01;8.70;76.60
13093;DHT22;6612;49.568;11.000;2022-11-21T00:21:28;8.70;77.50
13093;DHT22;6612;49.568;11.000;2022-11-21T00:23:55;8.70;76.90
13093;DHT22;6612;49.568;11.000;2022-11-21T00:26:22;8.70;76.90
13093;DHT22;6612;49.568;11.000;2022-11-21T00:28:49;8.70;76.90
13093;DHT22;6612;49.568;11.000;2022-11-21T00:31:20;8.70;77.00
13093;DHT22;6612;49.568;11.000;2022-11-21T00:33:49;8.80;76.80
13093;DHT22;6612;49.568;11.000;2022-11-21T00:36:16;8.80;76.80
13093;DHT22;6612;49.568;11.000;2022-11-21T00:38:43;8.70;76.70
13093;DHT22;6612;49.568;11.000;2022-11-21T00:41:10;8.80;76.60
13093;DHT22;6612;49.568;11.000;2022-11-21T00:43:37;8.80;76.50
13093;DHT22;6612;49.568;11.000;2022-11-21T00:46:03;8.80;76.40
13093;DHT22;6612;49.568;11.000;2022-11-21T00:48:31;8.80;76.20
13093;DHT22;6612;49.568;11.000;2022-11-21T00:50:59;8.80;76.30
13093;DHT22;6612;49.568;11.000;2022-11-21T00:53:27;8.80;76.30
13093;DHT22;6612;49.568;11.000;2022-11-21T00:55:54;8.70;76.50
13093;DHT22;6612;49.568;11.000;2022-11-21T00:58:21;8.80;76.80
13093;DHT22;6612;49.568;11.000;2022-11-21T01:00:48;8.80;77.10
13093;DHT22;6612;49.568;11.000;2022-11-21T01:03:15;8.80;77.30
13093;DHT22;6612;49.568;11.000;2022-11-21T01:05:42;8.80;77.50
13093;DHT22;6612;49.568;11.000;2022-11-21T01:08:10;8.80;77.50
13093;DHT22;6612;49.568;11.000;2022-11-21T01:10:37;8.90;78.40
13093;DHT22;6612;49.568;11.000;2022-11-21T01:13:04;8.80;78.40
13093;DHT22;6612;49.568;11.000;2022-11-21T01:15:30;8.90;77.80
13093;DHT22;6612;49.568;11.000;2022-11-21T01:17:59;8.90;77.80
13093;DHT22;6612;49.568;11.000;2022-11-21T01:20:26;9.00;77.90
13093;DHT22;6612;49.568;11.000;2022-11-21T01:22:52;9.00;77.90
13093;DHT22;6612;49.568;11.000;2022-11-21T01:25:21;9.00;77.90
13093;DHT22;6612;49.568;11.000;2022-11-21T01:27:48;9.00;77.80
13093;DHT22;6612;49.568;11.000;2022-11-21T01:30:15;9.10;78.10
13093;DHT22;6612;49.568;11.000;2022-11-21T01:32:41;9.10;78.00
13093;DHT22;6612;49.568;11.000;2022-11-21T01:35:08;9.10;78.00
13093;DHT22;6612;49.568;11.000;2022-11-21T01:37:35;9.10;77.90
13093;DHT22;6612;49.568;11.000;2022-11-21T01:40:03;9.10;78.00
13093;DHT22;6612;49.568;11.000;2022-11-21T01:42:48;9.20;78.10
13093;DHT22;6612;49.568;11.000;2022-11-21T01:45:53;9.20;77.60
13093;DHT22;6612;49.568;11.000;2022-11-21T01:48:24;9.20;77.40
13093;DHT22;6612;49.568;11.000;2022-11-21T01:50:52;9.20;77.70
13093;DHT22;6612;49.568;11.000;2022-11-21T01:53:20;9.30;77.90
13093;DHT22;6612;49.568;11.000;2022-11-21T01:55:47;9.20;77.80
13093;DHT22;6612;49.568;11.000;2022-11-21T01:58:16;9.20;77.90
13093;DHT22;6612;49.568;11.000;2022-11-21T02:00:45;9.30;77.90
13093;DHT22;6612;49.568;11.000;2022-11-21T02:03:15;9.30;77.90
13093;DHT22;6612;49.568;11.000;2022-11-21T02:05:45;9.30;77.80
13093;DHT22;6612;49.568;11.000;2022-11-21T02:08:15;9.30;77.90
13093;DHT22;6612;49.568;11.000;2022-11-21T02:10:48;9.30;77.70
13093;DHT22;6612;49.568;11.000;2022-11-21T02:13:18;9.40;77.70
13093;DHT22;6612;49.568;11.000;2022-11-21T02:15:47;9.40;77.80
13093;DHT22;6612;49.568;11.000;2022-11-21T02:18:14;9.40;77.90
13093;DHT22;6612;49.568;11.000;2022-11-21T02:20:45;9.40;78.00
13093;DHT22;6612;49.568;11.000;2022-11-21T02:23:19;9.50;77.90
13093;DHT22;6612;49.568;11.000;2022-11-21T02:25:51;9.30;77.50
13093;DHT22;6612;49.568;11.000;2022-11-21T02:28:20;9.40;77.60
13093;DHT22;6612;49.568;11.000;2022-11-21T02:30:48;9.40;77.60
13093;DHT22;6612;49.568;11.000;2022-11-21T02:33:15;9.40;77.70
13093;DHT22;6612;49.568;11.000;2022-11-21T02:35:43;9.40;77.80
13093;DHT22;6612;49.568;11.000;2022-11-21T02:38:15;9.40;77.80
13093;DHT22;6612;49.568;11.000;2022-11-21T02:40:49;9.50;77.70
13093;DHT22;6612;49.568;11.000;2022-11-21T02:43:22;9.40;77.40
13093;DHT22;6612;49.568;11.000;2022-11-21T02:45:50;9.50;77.60
13093;DHT22;6612;49.568;11.000;2022-11-21T02:48:17;9.50;77.80
13093;DHT22;6612;49.568;11.000;2022-11-21T02:50:45;9.50;77.80
13093;DHT22;6612;49.568;11.000;2022-11-21T02:53:14;9.40;77.70
13093;DHT22;6612;49.568;11.000;2022-11-21T02:55:41;9.50;77.70
13093;DHT22;6612;49.568;11.000;2022-11-21T02:58:09;9.50;77.70
13093;DHT22;6612;49.568;11.000;2022-11-21T03:00:39;9.50;77.60
13093;DHT22;6612;49.568;11.000;2022-11-21T03:03:06;9.50;77.40
13093;DHT22;6612;49.568;11.000;2022-11-21T03:05:33;9.50;77.70
13093;DHT22;6612;49.568;11.000;2022-11-21T03:08:00;9.60;77.70
13093;DHT22;6612;49.568;11.000;2022-11-21T03:10:27;9.50;77.60
13093;DHT22;6612;49.568;11.000;2022-11-21T03:12:54;9.50;77.40
13093;DHT22;6612;49.568;11.000;2022-11-21T03:15:26;9.50;78.00
13093;DHT22;6612;49.568;11.000;2022-11-21T03:17:55;9.50;76.90
13093;DHT22;6612;49.568;11.000;2022-11-21T03:20:23;9.50;76.70
13093;DHT22;6612;49.568;11.000;2022-11-21T03:22:50;9.50;76.70
13093;DHT22;6612;49.568;11.000;2022-11-21T03:25:18;9.50;76.80
13093;DHT22;6612;49.568;11.000;2022-11-21T03:27:45;9.50;76.80
13093;DHT22;6612;49.568;11.000;2022-11-21T03:30:12;9.50;76.80
13093;DHT22;6612;49.568;11.000;2022-11-21T03:32:39;9.50;76.70
13093;DHT22;6612;49.568;11.000;2022-11-21T03:35:08;9.50;76.80
13093;DHT22;6612;49.568;11.000;2022-11-21T03:37:35;9.50;76.60
13093;DHT22;6612;49.568;11.000;2022-11-21T03:40:02;9.50;77.20
13093;DHT22;6612;49.568;11.000;2022-11-21T03:42:29;9.40;76.30
13093;DHT22;6612;49.568;11.000;2022-11-21T03:44:56;9.40;76.40
13093;DHT22;6612;49.568;11.000;2022-11-21T03:47:23;9.40;76.50
13093;DHT22;6612;49.568;11.000;2022-11-21T03:49:51;9.40;76.70
13093;DHT22;6612;49.568;11.000;2022-11-21T03:52:20;9.40;76.80
13093;DHT22;6612;49.568;11.000;2022-11-21T03:54:47;9.40;76.90
13093;DHT22;6612;49.568;11.000;2022-11-21T03:57:14;9.40;77.00
13093;DHT22;6612;49.568;11.000;2022-11-21T03:59:41;9.50;77.20
13093;DHT22;6612;49.568;11.000;2022-11-21T04:02:07;9.40;77.20
13093;DHT22;6612;49.568;11.000;2022-11-21T04:04:34;9.40;77.20
13093;DHT22;6612;49.568;11.000;2022-11-21T04:07:01;9.40;77.20
13093;DHT22;6612;49.568;11.000;2022-11-21T04:09:30;9.40;77.20
13093;DHT22;6612;49.568;11.000;2022-11-21T04:11:56;9.50;77.20
13093;DHT22;6612;49.568;11.000;2022-11-21T04:14:23;9.50;77.50
13093;DHT22;6612;49.568;11.000;2022-11-21T04:16:50;9.50;78.20
13093;DHT22;6612;49.568;11.000;2022-11-21T04:19:17;9.50;77.50
13093;DHT22;6612;49.568;11.000;2022-11-21T04:21:44;9.50;77.30
13093;DHT22;6612;49.568;11.000;2022-11-21T04:24:11;9.50;77.30
13093;DHT22;6612;49.568;11.000;2022-11-21T04:26:39;9.50;77.20
13093;DHT22;6612;49.568;11.000;2022-11-21T04:29:06;9.50;77.10
13093;DHT22;6612;49.568;11.000;2022-11-21T04:31:33;9.50;77.20
13093;DHT22;6612;49.568;11.000;2022-11-21T04:34:00;9.50;77.20
13093;DHT22;6612;49.568;11.000;2022-11-21T04:36:27;9.50;77.30
13093;DHT22;6612;49.568;11.000;2022-11-21T04:38:54;9.60;77.30
13093;DHT22;6612;49.568;11.000;2022-11-21T04:41:21;9.60;78.00
13093;DHT22;6612;49.568;11.000;2022-11-21T04:43:49;9.60;77.20
13093;DHT22;6612;49.568;11.000;2022-11-21T04:46:16;9.50;77.00
13093;DHT22;6612;49.568;11.000;2022-11-21T04:48:43;9.60;77.20
13093;DHT22;6612;49.568;11.000;2022-11-21T04:51:10;9.60;77.10
13093;DHT22;6612;49.568;11.000;2022-11-21T04:53:36;9.60;77.10
13093;DHT22;6612;49.568;11.000;2022-11-21T04:56:04;9.60;77.10
13093;DHT22;6612;49.568;11.000;2022-11-21T04:58:31;9.60;77.80
13093;DHT22;6612;49.568;11.000;2022-11-21T05:01:05;9.60;77.10
13093;DHT22;6612;49.568;11.000;2022-11-21T05:03:33;9.60;76.60
13093;DHT22;6612;49.568;11.000;2022-11-21T05:06:00;9.60;76.90
13093;DHT22;6612;49.568;11.000;2022-11-21T05:08:27;9.60;76.90
13093;DHT22;6612;49.568;11.000;2022-11-21T05:10:54;9.60;76.80
13093;DHT22;6612;49.568;11.000;2022-11-21T05:13:38;9.60;76.80
13093;DHT22;6612;49.568;11.000;2022-11-21T05:16:07;9.50;76.70
13093;DHT22;6612;49.568;11.000;2022-11-21T05:18:34;9.60;76.60
13093;DHT22;6612;49.568;11.000;2022-11-21T05:21:01;9.60;76.60
13093;DHT22;6612;49.568;11.000;2022-11-21T05:23:28;9.60;76.60
13093;DHT22;6612;49.568;11.000;2022-11-21T05:25:55;9.60;76.70
13093;DHT22;6612;49.568;11.000;2022-11-21T05:28:22;9.60;76.70
13093;DHT22;6612;49.568;11.000;2022-11-21T05:30:49;9.50;76.60
13093;DHT22;6612;49.568;11.000;2022-11-21T05:33:17;9.60;76.70
13093;DHT22;6612;49.568;11.000;2022-11-21T05:35:45;9.60;77.40
13093;DHT22;6612;49.568;11.000;2022-11-21T05:38:12;9.60;76.80
13093;DHT22;6612;49.568;11.000;2022-11-21T05:40:39;9.60;76.80
13093;DHT22;6612;49.568;11.000;2022-11-21T05:43:05;9.60;76.80
13093;DHT22;6612;49.568;11.000;2022-11-21T05:45:50;9.60;76.90
13093;DHT22;6612;49.568;11.000;2022-11-21T05:48:18;9.60;76.80
13093;DHT22;6612;49.568;11.000;2022-11-21T05:50:47;9.60;76.60
13093;DHT22;6612;49.568;11.000;2022-11-21T05:53:15;9.60;76.70
13093;DHT22;6612;49.568;11.000;2022-11-21T05:55:42;9.60;76.70
13093;DHT22;6612;49.568;11.000;2022-11-21T05:58:09;9.60;76.70
13093;DHT22;6612;49.568;11.000;2022-11-21T06:00:37;9.60;76.60
13093;DHT22;6612;49.568;11.000;2022-11-21T06:03:04;9.60;76.60
13093;DHT22;6612;49.568;11.000;2022-11-21T06:05:50;9.60;76.60
13093;DHT22;6612;49.568;11.000;2022-11-21T06:08:17;9.60;76.60
13093;DHT22;6612;49.568;11.000;2022-11-21T06:10:44;9.60;76.70
13093;DHT22;6612;49.568;11.000;2022-11-21T06:13:11;9.60;76.80
13093;DHT22;6612;49.568;11.000;2022-11-21T06:15:52;9.60;76.90
13093;DHT22;6612;49.568;11.000;2022-11-21T06:18:21;9.60;76.60
13093;DHT22;6612;49.568;11.000;2022-11-21T06:20:50;9.60;76.80
13093;DHT22;6612;49.568;11.000;2022-11-21T06:23:18;9.60;77.00
13093;DHT22;6612;49.568;11.000;2022-11-21T06:25:45;9.60;76.50
13093;DHT22;6612;49.568;11.000;2022-11-21T06:28:12;9.60;76.30
13093;DHT22;6612;49.568;11.000;2022-11-21T06:30:39;9.60;76.30
13093;DHT22;6612;49.568;11.000;2022-11-21T06:33:06;9.60;76.20
13093;DHT22;6612;49.568;11.000;2022-11-21T06:35:36;9.60;76.30
13093;DHT22;6612;49.568;11.000;2022-11-21T06:38:05;9.60;76.00
13093;DHT22;6612;49.568;11.000;2022-11-21T06:40:32;9.60;76.10
13093;DHT22;6612;49.568;11.000;2022-11-21T06:42:59;9.60;76.30
13093;DHT22;6612;49.568;11.000;2022-11-21T06:45:26;9.50;76.20
13093;DHT22;6612;49.568;11.000;2022-11-21T06:47:53;9.60;76.20
13093;DHT22;6612;49.568;11.000;2022-11-21T06:50:20;9.50;75.90
13093;DHT22;6612;49.568;11.000;2022-11-21T06:52:47;9.50;75.90
13093;DHT22;6612;49.568;11.000;2022-11-21T06:55:15;9.50;75.90
13093;DHT22;6612;49.568;11.000;2022-11-21T06:57:42;9.50;75.90
13093;DHT22;6612;49.568;11.000;2022-11-21T07:00:10;9.50;76.00
13093;DHT22;6612;49.568;11.000;2022-11-21T07:02:37;9.50;76.10
13093;DHT22;6612;49.568;11.000;2022-11-21T07:05:05;9.50;76.00
13093;DHT22;6612;49.568;11.000;2022-11-21T07:07:32;9.50;76.10
13093;DHT22;6612;49.568;11.000;2022-11-21T07:09:58;9.50;76.20
13093;DHT22;6612;49.568;11.000;2022-11-21T07:12:27;9.50;76.20
13093;DHT22;6612;49.568;11.000;2022-11-21T07:15:11;9.50;76.30
13093;DHT22;6612;49.568;11.000;2022-11-21T07:17:38;9.50;76.60
13093;DHT22;6612;49.568;11.000;2022-11-21T07:20:06;9.50;76.80
13093;DHT22;6612;49.568;11.000;2022-11-21T07:22:33;9.50;76.80
13093;DHT22;6612;49.568;11.000;2022-11-21T07:25:00;9.50;76.90
13093;DHT22;6612;49.568;11.000;2022-11-21T07:27:28;9.50;76.80
13093;DHT22;6612;49.568;11.000;2022-11-21T07:29:55;9.60;76.90
13093;DHT22;6612;49.568;11.000;2022-11-21T07:32:23;9.70;77.10
13093;DHT22;6612;49.568;11.000;2022-11-21T07:34:50;9.60;77.10
13093;DHT22;6612;49.568;11.000;2022-11-21T07:37:17;9.60;77.30
13093;DHT22;6612;49.568;11.000;2022-11-21T07:39:44;9.70;77.60
13093;DHT22;6612;49.568;11.000;2022-11-21T07:42:11;9.70;77.70
13093;DHT22;6612;49.568;11.000;2022-11-21T07:44:39;9.70;77.80
13093;DHT22;6612;49.568;11.000;2022-11-21T07:47:06;9.70;78.40
13093;DHT22;6612;49.568;11.000;2022-11-21T07:49:33;9.90;79.50
13093;DHT22;6612;49.568;11.000;2022-11-21T07:52:00;9.90;80.80
13093;DHT22;6612;49.568;11.000;2022-11-21T07:54:27;10.10;80.10
13093;DHT22;6612;49.568;11.000;2022-11-21T07:56:54;10.20;79.50
13093;DHT22;6612;49.568;11.000;2022-11-21T07:59:20;10.30;78.70
13093;DHT22;6612;49.568;11.000;2022-11-21T08:01:49;10.40;77.90
13093;DHT22;6612;49.568;11.000;2022-11-21T08:04:16;10.40;77.90
13093;DHT22;6612;49.568;11.000;2022-11-21T08:06:43;10.50;77.50
13093;DHT22;6612;49.568;11.000;2022-11-21T08:09:10;10.50;77.80
13093;DHT22;6612;49.568;11.000;2022-11-21T08:11:37;10.60;78.70
13093;DHT22;6612;49.568;11.000;2022-11-21T08:14:04;10.70;79.50
13093;DHT22;6612;49.568;11.000;2022-11-21T08:16:31;10.80;79.70
13093;DHT22;6612;49.568;11.000;2022-11-21T08:19:00;10.80;79.30
13093;DHT22;6612;49.568;11.000;2022-11-21T08:21:27;10.90;78.80
13093;DHT22;6612;49.568;11.000;2022-11-21T08:23:54;11.00;78.70
13093;DHT22;6612;49.568;11.000;2022-11-21T08:26:21;11.00;78.40
13093;DHT22;6612;49.568;11.000;2022-11-21T08:28:48;11.10;78.40
13093;DHT22;6612;49.568;11.000;2022-11-21T08:31:14;11.20;78.70
13093;DHT22;6612;49.568;11.000;2022-11-21T08:33:41;11.20;78.50
13093;DHT22;6612;49.568;11.000;2022-11-21T08:36:10;11.30;78.30
13093;DHT22;6612;49.568;11.000;2022-11-21T08:38:37;11.30;77.50
13093;DHT22;6612;49.568;11.000;2022-11-21T08:41:04;11.40;77.80
13093;DHT22;6612;49.568;11.000;2022-11-21T08:43:48;11.40;77.70
13093;DHT22;6612;49.568;11.000;2022-11-21T08:46:15;11.50;77.10
13093;DHT22;6612;49.568;11.000;2022-11-21T08:48:42;11.50;77.20
13093;DHT22;6612;49.568;11.000;2022-11-21T08:51:11;11.50;77.80
13093;DHT22;6612;49.568;11.000;2022-11-21T08:53:38;11.60;78.90
13093;DHT22;6612;49.568;11.000;2022-11-21T08:56:04;11.70;80.00
13093;DHT22;6612;49.568;11.000;2022-11-21T08:58:31;11.80;80.50
13093;DHT22;6612;49.568;11.000;2022-11-21T09:00:58;12.00;80.90
13093;DHT22;6612;49.568;11.000;2022-11-21T09:03:25;12.10;80.30
13093;DHT22;6612;49.568;11.000;2022-11-21T09:05:55;12.30;79.80
13093;DHT22;6612;49.568;11.000;2022-11-21T09:08:23;12.30;78.70
13093;DHT22;6612;49.568;11.000;2022-11-21T09:10:50;12.50;78.90
13093;DHT22;6612;49.568;11.000;2022-11-21T09:13:17;12.60;79.50
13093;DHT22;6612;49.568;11.000;2022-11-21T09:15:44;12.60;78.30
13093;DHT22;6612;49.568;11.000;2022-11-21T09:18:28;12.70;78.50
13093;DHT22;6612;49.568;11.000;2022-11-21T09:20:55;12.80;78.00
13093;DHT22;6612;49.568;11.000;2022-11-21T09:23:24;12.90;77.50
13093;DHT22;6612;49.568;11.000;2022-11-21T09:25:51;12.90;76.60
13093;DHT22;6612;49.568;11.000;2022-11-21T09:28:18;12.90;77.00
13093;DHT22;6612;49.568;11.000;2022-11-21T09:30:44;13.00;77.20
13093;DHT22;6612;49.568;11.000;2022-11-21T09:33:13;13.00;77.50
13093;DHT22;6612;49.568;11.000;2022-11-21T09:35:42;13.00;77.20
13093;DHT22;6612;49.568;11.000;2022-11-21T09:38:09;13.10;77.40
13093;DHT22;6612;49.568;11.000;2022-11-21T09:40:42;13.10;77.10
13093;DHT22;6612;49.568;11.000;2022-11-21T09:43:30;13.10;76.30
13093;DHT22;6612;49.568;11.000;2022-11-21T09:46:08;13.20;76.10
13093;DHT22;6612;49.568;11.000;2022-11-21T09:48:46;13.20;76.90
13093;DHT22;6612;49.568;11.000;2022-11-21T09:51:18;13.20;75.50
13093;DHT22;6612;49.568;11.000;2022-11-21T09:53:54;13.30;75.80
13093;DHT22;6612;49.568;11.000;2022-11-21T09:56:23;13.20;74.70
13093;DHT22;6612;49.568;11.000;2022-11-21T09:59:02;13.20;74.90
13093;DHT22;6612;49.568;11.000;2022-11-21T10:01:32;13.20;74.20
13093;DHT22;6612;49.568;11.000;2022-11-21T10:04:01;13.10;74.70
13093;DHT22;6612;49.568;11.000;2022-11-21T10:06:31;13.10;74.40
13093;DHT22;6612;49.568;11.000;2022-11-21T10:09:02;13.00;74.30
13093;DHT22;6612;49.568;11.000;2022-11-21T10:11:41;12.90;73.80
13093;DHT22;6612;49.568;11.000;2022-11-21T10:14:32;12.90;73.30
13093;DHT22;6612;49.568;11.000;2022-11-21T10:17:12;12.90;74.20
13093;DHT22;6612;49.568;11.000;2022-11-21T10:19:56;12.90;75.60
13093;DHT22;6612;49.568;11.000;2022-11-21T10:22:38;12.90;74.70
13093;DHT22;6612;49.568;11.000;2022-11-21T10:25:12;12.90;74.80
13093;DHT22;6612;49.568;11.000;2022-11-21T10:27:46;12.90;75.10
13093;DHT22;6612;49.568;11.000;2022-11-21T10:30:17;12.90;74.30
13093;DHT22;6612;49.568;11.000;2022-11-21T10:32:46;12.90;74.70
13093;DHT22;6612;49.568;11.000;2022-11-21T10:35:16;12.90;74.70
13093;DHT22;6612;49.568;11.000;2022-11-21T10:37:48;12.90;75.00
13093;DHT22;6612;49.568;11.000;2022-11-21T10:40:25;12.90;74.60
13093;DHT22;6612;49.568;11.000;2022-11-21T10:42:59;12.90;74.00
13093;DHT22;6612;49.568;11.000;2022-11-21T10:45:46;12.90;74.70
13093;DHT22;6612;49.568;11.000;2022-11-21T10:48:12;13.00;75.70
13093;DHT22;6612;49.568;11.000;2022-11-21T10:50:49;13.00;75.60
13093;DHT22;6612;49.568;11.000;2022-11-21T10:53:20;12.90;74.70
13093;DHT22;6612;49.568;11.000;2022-11-21T10:56:07;12.90;75.20
13093;DHT22;6612;49.568;11.000;2022-11-21T10:58:41;13.00;75.10
13093;DHT22;6612;49.568;11.000;2022-11-21T11:01:22;13.00;74.20
13093;DHT22;6612;49.568;11.000;2022-11-21T11:04:14;13.00;73.80
13093;DHT22;6612;49.568;11.000;2022-11-21T11:06:43;13.00;73.10
13093;DHT22;6612;49.568;11.000;2022-11-21T11:09:22;13.00;74.50
13093;DHT22;6612;49.568;11.000;2022-11-21T11:11:49;13.00;73.00
13093;DHT22;6612;49.568;11.000;2022-11-21T11:14:26;13.00;74.70
13093;DHT22;6612;49.568;11.000;2022-11-21T11:16:54;13.00;74.10
13093;DHT22;6612;49.568;11.000;2022-11-21T11:19:24;13.00;76.20
13093;DHT22;6612;49.568;11.000;2022-11-21T11:21:52;13.10;76.20
13093;DHT22;6612;49.568;11.000;2022-11-21T11:24:22;13.10;76.60
13093;DHT22;6612;49.568;11.000;2022-11-21T11:26:55;13.20;76.30
13093;DHT22;6612;49.568;11.000;2022-11-21T11:29:26;13.20;75.80
13093;DHT22;6612;49.568;11.000;2022-11-21T11:31:55;13.30;75.00
13093;DHT22;6612;49.568;11.000;2022-11-21T11:34:25;13.30;75.20
13093;DHT22;6612;49.568;11.000;2022-11-21T11:36:55;13.30;74.80
13093;DHT22;6612;49.568;11.000;2022-11-21T11:39:36;13.40;75.10
13093;DHT22;6612;49.568;11.000;2022-11-21T11:42:28;13.40;74.60
13093;DHT22;6612;49.568;11.000;2022-11-21T11:48:28;13.50;75.30
13093;DHT22;6612;49.568;11.000;2022-11-21T11:50:59;13.50;76.70
13093;DHT22;6612;49.568;11.000;2022-11-21T11:53:31;13.60;74.90
13093;DHT22;6612;49.568;11.000;2022-11-21T11:56:02;13.60;75.00
13093;DHT22;6612;49.568;11.000;2022-11-21T11:58:39;13.60;74.70
13093;DHT22;6612;49.568;11.000;2022-11-21T12:01:12;13.60;74.20
13093;DHT22;6612;49.568;11.000;2022-11-21T12:03:44;13.60;73.20
13093;DHT22;6612;49.568;11.000;2022-11-21T12:06:17;13.50;73.10
13093;DHT22;6612;49.568;11.000;2022-11-21T12:08:51;13.50;72.70
13093;DHT22;6612;49.568;11.000;2022-11-21T12:11:35;13.50;72.20
13093;DHT22;6612;49.568;11.000;2022-11-21T12:14:49;13.40;71.60
13093;DHT22;6612;49.568;11.000;2022-11-21T12:17:42;13.40;71.20
13093;DHT22;6612;49.568;11.000;2022-11-21T12:20:15;13.40;72.90
13093;DHT22;6612;49.568;11.000;2022-11-21T12:22:44;13.30;73.30
13093;DHT22;6612;49.568;11.000;2022-11-21T12:25:12;13.30;73.90
13093;DHT22;6612;49.568;11.000;2022-11-21T12:27:40;13.30;74.10
13093;DHT22;6612;49.568;11.000;2022-11-21T12:30:36;13.30;74.90
13093;DHT22;6612;49.568;11.000;2022-11-21T12:33:15;13.30;72.90
13093;DHT22;6612;49.568;11.000;2022-11-21T12:35:56;13.40;74.40
13093;DHT22;6612;49.568;11.000;2022-11-21T12:38:42;13.40;73.60
13093;DHT22;6612;49.568;11.000;2022-11-21T12:41:20;13.50;72.80
13093;DHT22;6612;49.568;11.000;2022-11-21T12:44:17;13.40;72.80
13093;DHT22;6612;49.568;11.000;2022-11-21T12:46:55;13.50;72.30
13093;DHT22;6612;49.568;11.000;2022-11-21T12:49:31;13.50;71.80
13093;DHT22;6612;49.568;11.000;2022-11-21T12:52:21;13.40;71.10
13093;DHT22;6612;49.568;11.000;2022-11-21T12:55:17;13.30;70.60
13093;DHT22;6612;49.568;11.000;2022-11-21T13:00:45;13.10;69.60
13093;DHT22;6612;49.568;11.000;2022-11-21T13:03:42;13.00;69.70
13093;DHT22;6612;49.568;11.000;2022-11-21T13:06:15;12.90;68.80
13093;DHT22;6612;49.568;11.000;2022-11-21T13:08:44;12.80;70.10
13093;DHT22;6612;49.568;11.000;2022-11-21T13:11:28;12.70;70.50
13093;DHT22;6612;49.568;11.000;2022-11-21T13:14:19;12.70;69.90
13093;DHT22;6612;49.568;11.000;2022-11-21T13:16:51;12.60;70.30
13093;DHT22;6612;49.568;11.000;2022-11-21T13:19:24;12.50;70.50
13093;DHT22;6612;49.568;11.000;2022-11-21T13:21:55;12.50;70.50
13093;DHT22;6612;49.568;11.000;2022-11-21T13:24:56;12.40;70.20
13093;DHT22;6612;49.568;11.000;2022-11-21T13:27:28;12.40;68.30
13093;DHT22;6612;49.568;11.000;2022-11-21T13:30:23;12.30;69.70
13093;DHT22;6612;49.568;11.000;2022-11-21T13:32:52;12.20;69.00
13093;DHT22;6612;49.568;11.000;2022-11-21T13:38:30;12.10;68.50
13093;DHT22;6612;49.568;11.000;2022-11-21T13:40:57;12.00;69.80
13093;DHT22;6612;49.568;11.000;2022-11-21T13:43:41;11.90;70.00
13093;DHT22;6612;49.568;11.000;2022-11-21T13:46:08;11.80;70.20
13093;DHT22;6612;49.568;11.000;2022-11-21T13:49:00;11.80;70.50
13093;DHT22;6612;49.568;11.000;2022-11-21T13:51:51;11.80;69.60
13093;DHT22;6612;49.568;11.000;2022-11-21T13:57:27;11.70;69.90
13093;DHT22;6612;49.568;11.000;2022-11-21T14:00:15;11.70;69.80
13093;DHT22;6612;49.568;11.000;2022-11-21T14:06:00;11.60;69.00
13093;DHT22;6612;49.568;11.000;2022-11-21T14:08:29;11.50;69.40
13093;DHT22;6612;49.568;11.000;2022-11-21T14:10:58;11.40;70.90
13093;DHT22;6612;49.568;11.000;2022-11-21T14:13:47;11.40;70.20
13093;DHT22;6612;49.568;11.000;2022-11-21T14:16:24;11.30;70.00
13093;DHT22;6612;49.568;11.000;2022-11-21T14:18:53;11.30;69.50
13093;DHT22;6612;49.568;11.000;2022-11-21T14:21:21;11.20;69.90
13093;DHT22;6612;49.568;11.000;2022-11-21T14:23:53;11.20;69.90
13093;DHT22;6612;49.568;11.000;2022-11-21T14:26:22;11.10;69.90
13093;DHT22;6612;49.568;11.000;2022-11-21T14:28:50;11.10;69.50
13093;DHT22;6612;49.568;11.000;2022-11-21T14:31:17;11.00;69.50
13093;DHT22;6612;49.568;11.000;2022-11-21T14:33:45;11.00;69.60
13093;DHT22;6612;49.568;11.000;2022-11-21T14:36:14;11.00;69.50
13093;DHT22;6612;49.568;11.000;2022-11-21T14:38:43;10.90;69.40
13093;DHT22;6612;49.568;11.000;2022-11-21T14:41:27;10.90;69.40
13093;DHT22;6612;49.568;11.000;2022-11-21T14:44:15;10.80;68.70
13093;DHT22;6612;49.568;11.000;2022-11-21T14:46:45;10.70;68.60
13093;DHT22;6612;49.568;11.000;2022-11-21T14:49:26;10.70;69.20
13093;DHT22;6612;49.568;11.000;2022-11-21T14:52:05;10.60;68.40
13093;DHT22;6612;49.568;11.000;2022-11-21T14:54:44;10.50;68.70
13093;DHT22;6612;49.568;11.000;2022-11-21T14:57:21;10.50;68.70
13093;DHT22;6612;49.568;11.000;2022-11-21T14:59:53;10.50;68.50
13093;DHT22;6612;49.568;11.000;2022-11-21T15:02:24;10.40;68.70
13093;DHT22;6612;49.568;11.000;2022-11-21T15:04:59;10.30;68.60
13093;DHT22;6612;49.568;11.000;2022-11-21T15:07:34;10.20;68.40
13093;DHT22;6612;49.568;11.000;2022-11-21T15:10:04;10.20;68.40
13093;DHT22;6612;49.568;11.000;2022-11-21T15:12:39;10.10;68.40
13093;DHT22;6612;49.568;11.000;2022-11-21T15:15:24;10.10;68.20
13093;DHT22;6612;49.568;11.000;2022-11-21T15:18:11;10.00;68.00
13093;DHT22;6612;49.568;11.000;2022-11-21T15:20:46;9.90;69.20
13093;DHT22;6612;49.568;11.000;2022-11-21T15:23:30;9.90;69.00
13093;DHT22;6612;49.568;11.000;2022-11-21T15:26:01;9.80;68.90
13093;DHT22;6612;49.568;11.000;2022-11-21T15:28:34;9.70;68.90
13093;DHT22;6612;49.568;11.000;2022-11-21T15:31:17;9.60;68.80
13093;DHT22;6612;49.568;11.000;2022-11-21T15:33:57;9.60;68.50
13093;DHT22;6612;49.568;11.000;2022-11-21T15:36:28;9.50;68.30
13093;DHT22;6612;49.568;11.000;2022-11-21T15:39:01;9.40;68.40
13093;DHT22;6612;49.568;11.000;2022-11-21T15:41:32;9.30;68.10
13093;DHT22;6612;49.568;11.000;2022-11-21T15:44:24;9.20;68.10
13093;DHT22;6612;49.568;11.000;2022-11-21T15:46:56;9.10;67.80
13093;DHT22;6612;49.568;11.000;2022-11-21T15:49:25;9.00;67.90
13093;DHT22;6612;49.568;11.000;2022-11-21T15:51:55;9.00;68.10
13093;DHT22;6612;49.568;11.000;2022-11-21T15:54:26;8.90;68.10
13093;DHT22;6612;49.568;11.000;2022-11-21T15:57:00;8.70;68.00
13093;DHT22;6612;49.568;11.000;2022-11-21T15:59:39;8.70;68.20
13093;DHT22;6612;49.568;11.000;2022-11-21T16:02:11;8.70;68.10
13093;DHT22;6612;49.568;11.000;2022-11-21T16:04:54;8.60;68.10
13093;DHT22;6612;49.568;11.000;2022-11-21T16:07:24;8.50;68.10
13093;DHT22;6612;49.568;11.000;2022-11-21T16:10:04;8.50;68.20
